Crawford, Georgia
Current Conditions -  °F | °C
As of 8:51 AM on Friday 28 Nov 2014 (Local Time) from KAHN Reporting Station
Clear Clear  
Wind Chill: 33°   Ceiling: Unl
Heat Index: 33°   Visibility: 10mi
Dew Point: 21°   Wind: 0mph
Humidity: 61%   Direction: NA
Pressure: 30.37"   Gusts: NA
Location:  33.88°N, 83.15°W
Report Text: KAHN 281351Z 00000KT 10SM CLR 01/M06 A3037 RMK AO2 SLP293 T00061061
Loading
Personal Weather Stations






























Interactive Weather Map New forecast layout! Learn more

10-Day Weather Forecast

Advertisements
Track Severe Weather on mobile